AirNav   Everest Fuels
 
 815 users online  

9W3 Simpson Airport
Philippi, West Virginia, USA

GOING TO PHILIPPI?


FAA INFORMATION EFFECTIVE 28 FEBRUARY 2019

Location

FAA Identifier: 9W3
Lat/Long: 39-05-36.3570N / 080-01-33.2840W
39-05.605950N / 080-01.554733W
39.0934325 / -80.0259122
(estimated)
Elevation: 1960 ft. / 597 m (estimated)
Variation: 07W (1985)
From city: 3 miles S of PHILIPPI, WV
Time zone: UTC -5 (UTC -4 during Daylight Saving Time)
Zip code: 26416

Airport Operations

Airport use: Open to the public
Activation date: 04/1947
Control tower: no
ARTCC: WASHINGTON CENTER
FSS: ELKINS FLIGHT SERVICE STATION [703-724-4288]
NOTAMs facility: EKN (NOTAM-D service available)
Attendance: CONTINUOUS
Wind indicator: yes
Segmented circle: no

Airport Communications

CTAF: 122.9
WX AWOS-3 at W22 (13 nm SW): 119.975 (304-472-9428)
WX ASOS at EKN (15 nm SE): 119.275 (304-636-5603)
WX ASOS at CKB (15 nm NW): PHONE 304-842-9240

Nearby radio navigation aids

VOR radial/distance  VOR name  Freq  Var
EKNr025/11.3ELKINS VORTAC114.2007W
CKBr134/14.8CLARKSBURG VOR/DME112.6004W
MGWr200/28.8MORGANTOWN VOR/DME111.6005W

 
NDB name  Hdg/Dist  Freq  Var  ID
RANDOLPH COUNTY334/14.328407WRQY .-. --.- -.--

Airport Services

Parking: hangars and tiedowns
Bottled oxygen: NONE
Bulk oxygen: NONE

Runway Information

Runway 1/19

Dimensions: 1500 x 50 ft. / 457 x 15 m
Surface: turf, in fair condition
RWY 01/19 SFC ROLLING.
Runway edge markings: 01/19 LANDING AREA OUTLINED WITH WHITE TIRES.
RUNWAY 1  RUNWAY 19
Traffic pattern: leftleft
Runway end identifier lights: nono
Obstructions: 15 ft. road60 ft. trees

Airport Ownership and Management from official FAA records

Ownership: Privately-owned
Owner: LINDA COLEMAN
RT4, AIRPORT RD
PHILIPPI, WV 26416
Phone 304-457-2323
Manager: LINDA COLEMAN
RT4, AIRPORT RD
PHILIPPI, WV 26416
Phone 304-457-2323

Airport Operational Statistics

Aircraft operations: 60/year *
83% transient general aviation
17% local general aviation
* for 12-month period ending 31 December 2017

Additional Remarks

RY 19 +25 FT BRUSH 50 FT FROM THLD.
DEER ON & INVOF ARPT.
RY 19 HAS 50 FT DROP-OFF 75 FT FM THLD 0B.
RWY 01 75 FT TREE, 0 FT DSTC, 106 FT R OF THLD.
RY 01 HAS 15 FT PUBLIC ROAD AT RY END.

Instrument Procedures

There are no published instrument procedures at 9W3.

Some nearby airports with instrument procedures:

79D - Philippi/Barbour County Regional Airport (5 nm N)
W22 - Upshur County Regional Airport (13 nm SW)
KEKN - Elkins-Randolph County Airport-Jennings Randolph Field (15 nm SE)
KCKB - North Central West Virginia Airport (15 nm NW)
4G7 - Fairmont Municipal Airport-Frankman Field (22 nm N)
 
Loc | Ops | Rwys | IFR | FBO | Links
Com | Nav | Svcs | Stats | Notes
Area around 9W3 (Simpson Airport)
 
Road maps at: MapQuest Bing Google
 
Aerial photo
WARNING: Photo may not be current or correct
Aerial photo of 9W3 (Simpson Airport)
Do you have a better or more recent aerial photo of Simpson Airport that you would like to share? If so, please send us your photo.

 
Sectional chart

 
Airport distance calculator
Flying to Simpson Airport? Find the distance to fly.

From to 9W3

Sunrise and sunset
Times for 19-Mar-2019
 Local
(UTC-4)
 Zulu
(UTC)
Morning civil twilight07:0011:00
Sunrise07:2611:26
Sunset19:3023:30
Evening civil twilight19:5623:56

Current date and time
Zulu (UTC)  20-Mar-2019 02:01:34
Local (UTC-4)  19-Mar-2019 22:01:34
 
METAR
KW22 
13nm SW 
200155Z AUTO 00000KT 10SM CLR 02/M09 A3034 RMK AO2
KEKN 
15nm SE 
200151Z AUTO 00000KT 10SM CLR M01/M08 A3034 RMK AO2 SLP299 T10111083 TSNO
KCKB 
15nm NW 
200153Z 00000KT 10SM CLR 04/M08 A3034 RMK AO2 SLP279 T00391078
TAF
KEKN 
15nm SE 
191720Z 1918/2018 31004KT P6SM FEW250 FM192300 00000KT P6SM SKC FM201400 19004KT P6SM SCT180 FM201700 21005KT P6SM BKN150
KCKB 
15nm NW 
191720Z 1918/2018 VRB03KT P6SM FEW250 FM201400 19004KT P6SM SCT180 FM201700 21005KT P6SM SCT180
NOTAMs
Click for the latest NOTAMs
NOTAMs are issued by the DoD/FAA and will open in a separate window not controlled by AirNav.

 

 
 

Would you like to see your business listed on this page?

 If your business provides an interesting product or service to pilots, flight crews, aircraft, or users of the Simpson Airport, you should consider listing it here.  To start the listing process, click on the button below
 
Add a business
 

Other Pages about Simpson Airport

Update a link
 
Copyright © AirNav, LLC. All rights reserved. Privacy Policy  Contact